sensor_id;sensor_type;location;lat;lon;timestamp;temperature;humidity
23633;DHT22;11993;48.748;9.166;2023-04-24T00:00:02;10.20;81.70
23633;DHT22;11993;48.748;9.166;2023-04-24T00:02:30;10.30;81.20
23633;DHT22;11993;48.748;9.166;2023-04-24T00:04:57;10.30;81.60
23633;DHT22;11993;48.748;9.166;2023-04-24T00:07:22;10.30;81.50
23633;DHT22;11993;48.748;9.166;2023-04-24T00:09:48;10.40;81.20
23633;DHT22;11993;48.748;9.166;2023-04-24T00:12:13;10.30;81.70
23633;DHT22;11993;48.748;9.166;2023-04-24T00:14:39;10.20;81.80
23633;DHT22;11993;48.748;9.166;2023-04-24T00:17:04;10.40;81.40
23633;DHT22;11993;48.748;9.166;2023-04-24T00:19:30;10.40;81.10
23633;DHT22;11993;48.748;9.166;2023-04-24T00:21:55;10.40;81.40
23633;DHT22;11993;48.748;9.166;2023-04-24T00:24:21;10.40;80.60
23633;DHT22;11993;48.748;9.166;2023-04-24T00:26:47;10.40;80.50
23633;DHT22;11993;48.748;9.166;2023-04-24T00:29:13;10.40;80.20
23633;DHT22;11993;48.748;9.166;2023-04-24T00:31:39;10.40;80.30
23633;DHT22;11993;48.748;9.166;2023-04-24T00:34:04;10.40;80.20
23633;DHT22;11993;48.748;9.166;2023-04-24T00:36:31;10.50;80.20
23633;DHT22;11993;48.748;9.166;2023-04-24T00:38:58;10.40;80.30
23633;DHT22;11993;48.748;9.166;2023-04-24T00:41:25;10.40;79.90
23633;DHT22;11993;48.748;9.166;2023-04-24T00:43:52;10.40;79.80
23633;DHT22;11993;48.748;9.166;2023-04-24T00:46:17;10.40;79.70
23633;DHT22;11993;48.748;9.166;2023-04-24T00:48:43;10.40;79.80
23633;DHT22;11993;48.748;9.166;2023-04-24T00:51:09;10.50;79.70
23633;DHT22;11993;48.748;9.166;2023-04-24T00:53:34;10.60;79.30
23633;DHT22;11993;48.748;9.166;2023-04-24T00:56:01;10.60;78.80
23633;DHT22;11993;48.748;9.166;2023-04-24T00:58:28;10.50;78.90
23633;DHT22;11993;48.748;9.166;2023-04-24T01:00:55;10.60;78.60
23633;DHT22;11993;48.748;9.166;2023-04-24T01:03:25;10.50;78.90
23633;DHT22;11993;48.748;9.166;2023-04-24T01:05:52;10.50;78.90
23633;DHT22;11993;48.748;9.166;2023-04-24T01:08:19;10.50;79.40
23633;DHT22;11993;48.748;9.166;2023-04-24T01:10:46;10.50;79.10
23633;DHT22;11993;48.748;9.166;2023-04-24T01:13:13;10.50;79.50
23633;DHT22;11993;48.748;9.166;2023-04-24T01:15:39;10.40;79.70
23633;DHT22;11993;48.748;9.166;2023-04-24T01:18:05;10.50;79.90
23633;DHT22;11993;48.748;9.166;2023-04-24T01:20:31;10.60;79.50
23633;DHT22;11993;48.748;9.166;2023-04-24T01:22:57;10.60;79.40
23633;DHT22;11993;48.748;9.166;2023-04-24T01:25:24;10.60;79.30
23633;DHT22;11993;48.748;9.166;2023-04-24T01:27:50;10.70;79.20
23633;DHT22;11993;48.748;9.166;2023-04-24T01:30:16;10.60;79.10
23633;DHT22;11993;48.748;9.166;2023-04-24T01:32:43;10.60;79.50
23633;DHT22;11993;48.748;9.166;2023-04-24T01:35:11;10.60;79.70
23633;DHT22;11993;48.748;9.166;2023-04-24T01:37:36;10.60;80.10
23633;DHT22;11993;48.748;9.166;2023-04-24T01:40:06;10.40;80.60
23633;DHT22;11993;48.748;9.166;2023-04-24T01:42:32;10.50;80.80
23633;DHT22;11993;48.748;9.166;2023-04-24T01:44:59;10.30;81.00
23633;DHT22;11993;48.748;9.166;2023-04-24T01:47:25;10.40;80.70
23633;DHT22;11993;48.748;9.166;2023-04-24T01:49:51;10.40;80.80
23633;DHT22;11993;48.748;9.166;2023-04-24T01:52:17;10.30;80.80
23633;DHT22;11993;48.748;9.166;2023-04-24T01:54:44;10.30;81.40
23633;DHT22;11993;48.748;9.166;2023-04-24T01:57:10;10.20;81.60
23633;DHT22;11993;48.748;9.166;2023-04-24T01:59:36;10.30;81.60
23633;DHT22;11993;48.748;9.166;2023-04-24T02:02:04;10.20;81.70
23633;DHT22;11993;48.748;9.166;2023-04-24T02:04:30;10.30;81.60
23633;DHT22;11993;48.748;9.166;2023-04-24T02:06:55;10.20;81.90
23633;DHT22;11993;48.748;9.166;2023-04-24T02:09:21;10.20;82.20
23633;DHT22;11993;48.748;9.166;2023-04-24T02:11:46;10.20;81.90
23633;DHT22;11993;48.748;9.166;2023-04-24T02:14:12;10.20;82.40
23633;DHT22;11993;48.748;9.166;2023-04-24T02:16:38;10.10;82.70
23633;DHT22;11993;48.748;9.166;2023-04-24T02:19:03;9.90;83.30
23633;DHT22;11993;48.748;9.166;2023-04-24T02:21:29;10.00;83.30
23633;DHT22;11993;48.748;9.166;2023-04-24T02:23:56;9.90;83.30
23633;DHT22;11993;48.748;9.166;2023-04-24T02:26:22;9.90;83.20
23633;DHT22;11993;48.748;9.166;2023-04-24T02:28:47;9.90;83.20
23633;DHT22;11993;48.748;9.166;2023-04-24T02:31:13;9.90;83.30
23633;DHT22;11993;48.748;9.166;2023-04-24T02:33:39;10.00;83.00
23633;DHT22;11993;48.748;9.166;2023-04-24T02:36:05;10.00;82.90
23633;DHT22;11993;48.748;9.166;2023-04-24T02:38:30;10.00;83.00
23633;DHT22;11993;48.748;9.166;2023-04-24T02:40:56;10.00;83.10
23633;DHT22;11993;48.748;9.166;2023-04-24T02:43:21;9.90;83.50
23633;DHT22;11993;48.748;9.166;2023-04-24T02:45:47;10.00;83.60
23633;DHT22;11993;48.748;9.166;2023-04-24T02:48:12;10.10;83.60
23633;DHT22;11993;48.748;9.166;2023-04-24T02:50:38;10.00;84.20
23633;DHT22;11993;48.748;9.166;2023-04-24T02:53:04;9.80;84.70
23633;DHT22;11993;48.748;9.166;2023-04-24T02:55:29;9.80;84.90
23633;DHT22;11993;48.748;9.166;2023-04-24T02:57:55;10.00;84.60
23633;DHT22;11993;48.748;9.166;2023-04-24T03:00:21;9.80;85.20
23633;DHT22;11993;48.748;9.166;2023-04-24T03:02:47;9.70;85.70
23633;DHT22;11993;48.748;9.166;2023-04-24T03:05:12;9.70;85.80
23633;DHT22;11993;48.748;9.166;2023-04-24T03:07:38;9.70;86.10
23633;DHT22;11993;48.748;9.166;2023-04-24T03:10:04;9.70;86.20
23633;DHT22;11993;48.748;9.166;2023-04-24T03:12:31;9.60;86.30
23633;DHT22;11993;48.748;9.166;2023-04-24T03:14:56;9.70;86.30
23633;DHT22;11993;48.748;9.166;2023-04-24T03:17:22;9.60;86.40
23633;DHT22;11993;48.748;9.166;2023-04-24T03:19:47;9.60;86.30
23633;DHT22;11993;48.748;9.166;2023-04-24T03:22:13;9.60;86.00
23633;DHT22;11993;48.748;9.166;2023-04-24T03:24:38;9.60;86.40
23633;DHT22;11993;48.748;9.166;2023-04-24T03:27:04;9.50;86.60
23633;DHT22;11993;48.748;9.166;2023-04-24T03:29:30;9.50;86.60
23633;DHT22;11993;48.748;9.166;2023-04-24T03:31:55;9.40;86.80
23633;DHT22;11993;48.748;9.166;2023-04-24T03:34:21;9.50;86.80
23633;DHT22;11993;48.748;9.166;2023-04-24T03:36:46;9.40;86.80
23633;DHT22;11993;48.748;9.166;2023-04-24T03:39:15;9.40;86.80
23633;DHT22;11993;48.748;9.166;2023-04-24T03:41:40;9.50;86.60
23633;DHT22;11993;48.748;9.166;2023-04-24T03:44:06;9.50;86.70
23633;DHT22;11993;48.748;9.166;2023-04-24T03:46:32;9.50;86.80
23633;DHT22;11993;48.748;9.166;2023-04-24T03:48:57;9.50;86.80
23633;DHT22;11993;48.748;9.166;2023-04-24T03:51:23;9.60;86.50
23633;DHT22;11993;48.748;9.166;2023-04-24T03:53:49;9.40;86.70
23633;DHT22;11993;48.748;9.166;2023-04-24T03:56:15;9.40;86.70
23633;DHT22;11993;48.748;9.166;2023-04-24T03:58:40;9.50;86.10
23633;DHT22;11993;48.748;9.166;2023-04-24T04:01:06;9.50;85.90
23633;DHT22;11993;48.748;9.166;2023-04-24T04:03:32;9.40;86.10
23633;DHT22;11993;48.748;9.166;2023-04-24T04:05:58;9.30;86.60
23633;DHT22;11993;48.748;9.166;2023-04-24T04:08:24;9.40;86.30
23633;DHT22;11993;48.748;9.166;2023-04-24T04:10:50;9.30;86.50
23633;DHT22;11993;48.748;9.166;2023-04-24T04:13:15;9.40;86.30
23633;DHT22;11993;48.748;9.166;2023-04-24T04:15:41;9.30;86.30
23633;DHT22;11993;48.748;9.166;2023-04-24T04:18:06;9.30;86.50
23633;DHT22;11993;48.748;9.166;2023-04-24T04:20:32;9.40;86.30
23633;DHT22;11993;48.748;9.166;2023-04-24T04:22:57;9.40;86.50
23633;DHT22;11993;48.748;9.166;2023-04-24T04:25:23;9.50;86.10
23633;DHT22;11993;48.748;9.166;2023-04-24T04:27:49;9.60;85.90
23633;DHT22;11993;48.748;9.166;2023-04-24T04:30:16;9.70;85.90
23633;DHT22;11993;48.748;9.166;2023-04-24T04:32:43;9.60;86.20
23633;DHT22;11993;48.748;9.166;2023-04-24T04:35:09;9.60;85.60
23633;DHT22;11993;48.748;9.166;2023-04-24T04:37:34;9.70;85.80
23633;DHT22;11993;48.748;9.166;2023-04-24T04:40:00;9.70;85.80
23633;DHT22;11993;48.748;9.166;2023-04-24T04:42:26;9.70;84.40
23633;DHT22;11993;48.748;9.166;2023-04-24T04:44:55;9.60;84.90
23633;DHT22;11993;48.748;9.166;2023-04-24T04:47:23;9.60;84.40
23633;DHT22;11993;48.748;9.166;2023-04-24T04:49:52;9.50;83.60
23633;DHT22;11993;48.748;9.166;2023-04-24T04:52:18;9.50;83.20
23633;DHT22;11993;48.748;9.166;2023-04-24T04:54:43;9.30;83.50
23633;DHT22;11993;48.748;9.166;2023-04-24T04:57:10;9.40;83.90
23633;DHT22;11993;48.748;9.166;2023-04-24T04:59:35;9.50;82.80
23633;DHT22;11993;48.748;9.166;2023-04-24T05:02:01;9.40;83.40
23633;DHT22;11993;48.748;9.166;2023-04-24T05:04:26;9.40;82.90
23633;DHT22;11993;48.748;9.166;2023-04-24T05:06:52;9.40;83.00
23633;DHT22;11993;48.748;9.166;2023-04-24T05:09:18;9.40;83.00
23633;DHT22;11993;48.748;9.166;2023-04-24T05:11:44;9.40;82.90
23633;DHT22;11993;48.748;9.166;2023-04-24T05:14:09;9.50;82.50
23633;DHT22;11993;48.748;9.166;2023-04-24T05:16:35;9.40;82.60
23633;DHT22;11993;48.748;9.166;2023-04-24T05:19:02;9.50;82.20
23633;DHT22;11993;48.748;9.166;2023-04-24T05:21:28;9.50;82.30
23633;DHT22;11993;48.748;9.166;2023-04-24T05:23:54;9.60;81.80
23633;DHT22;11993;48.748;9.166;2023-04-24T05:26:20;9.60;81.90
23633;DHT22;11993;48.748;9.166;2023-04-24T05:28:46;9.60;82.30
23633;DHT22;11993;48.748;9.166;2023-04-24T05:31:12;9.60;81.80
23633;DHT22;11993;48.748;9.166;2023-04-24T05:33:37;9.40;82.30
23633;DHT22;11993;48.748;9.166;2023-04-24T05:36:03;9.60;81.90
23633;DHT22;11993;48.748;9.166;2023-04-24T05:38:30;9.60;81.50
23633;DHT22;11993;48.748;9.166;2023-04-24T05:40:56;9.60;81.40
23633;DHT22;11993;48.748;9.166;2023-04-24T05:43:21;9.60;81.60
23633;DHT22;11993;48.748;9.166;2023-04-24T05:45:47;9.70;81.90
23633;DHT22;11993;48.748;9.166;2023-04-24T05:48:12;9.70;81.50
23633;DHT22;11993;48.748;9.166;2023-04-24T05:50:38;9.70;82.10
23633;DHT22;11993;48.748;9.166;2023-04-24T05:53:04;9.70;80.50
23633;DHT22;11993;48.748;9.166;2023-04-24T05:55:30;9.80;80.60
23633;DHT22;11993;48.748;9.166;2023-04-24T05:57:57;9.80;80.50
23633;DHT22;11993;48.748;9.166;2023-04-24T06:00:23;9.90;80.70
23633;DHT22;11993;48.748;9.166;2023-04-24T06:02:50;9.60;79.80
23633;DHT22;11993;48.748;9.166;2023-04-24T06:05:18;9.70;80.30
23633;DHT22;11993;48.748;9.166;2023-04-24T06:07:43;9.60;79.40
23633;DHT22;11993;48.748;9.166;2023-04-24T06:10:10;9.60;79.80
23633;DHT22;11993;48.748;9.166;2023-04-24T06:12:36;9.60;80.30
23633;DHT22;11993;48.748;9.166;2023-04-24T06:15:02;9.70;79.50
23633;DHT22;11993;48.748;9.166;2023-04-24T06:17:30;9.70;79.60
23633;DHT22;11993;48.748;9.166;2023-04-24T06:19:56;9.70;80.30
23633;DHT22;11993;48.748;9.166;2023-04-24T06:22:21;9.90;79.30
23633;DHT22;11993;48.748;9.166;2023-04-24T06:24:47;10.20;78.70
23633;DHT22;11993;48.748;9.166;2023-04-24T06:27:13;10.60;78.80
23633;DHT22;11993;48.748;9.166;2023-04-24T06:29:39;11.00;77.40
23633;DHT22;11993;48.748;9.166;2023-04-24T06:32:05;11.20;75.60
23633;DHT22;11993;48.748;9.166;2023-04-24T06:34:30;11.20;74.00
23633;DHT22;11993;48.748;9.166;2023-04-24T06:36:57;11.30;73.90
23633;DHT22;11993;48.748;9.166;2023-04-24T06:39:23;10.90;72.40
23633;DHT22;11993;48.748;9.166;2023-04-24T06:41:49;11.00;71.20
23633;DHT22;11993;48.748;9.166;2023-04-24T06:44:14;11.20;71.20
23633;DHT22;11993;48.748;9.166;2023-04-24T06:46:41;10.80;71.70
23633;DHT22;11993;48.748;9.166;2023-04-24T06:49:06;11.20;71.50
23633;DHT22;11993;48.748;9.166;2023-04-24T06:51:32;11.30;70.20
23633;DHT22;11993;48.748;9.166;2023-04-24T06:53:58;11.60;72.00
23633;DHT22;11993;48.748;9.166;2023-04-24T06:56:25;12.10;71.00
23633;DHT22;11993;48.748;9.166;2023-04-24T06:58:51;12.10;70.40
23633;DHT22;11993;48.748;9.166;2023-04-24T07:01:17;11.60;69.80
23633;DHT22;11993;48.748;9.166;2023-04-24T07:03:43;11.40;70.70
23633;DHT22;11993;48.748;9.166;2023-04-24T07:06:09;11.10;70.60
23633;DHT22;11993;48.748;9.166;2023-04-24T07:08:36;11.30;72.10
23633;DHT22;11993;48.748;9.166;2023-04-24T07:11:02;11.30;70.70
23633;DHT22;11993;48.748;9.166;2023-04-24T07:13:28;11.30;71.70
23633;DHT22;11993;48.748;9.166;2023-04-24T07:15:54;11.30;71.90
23633;DHT22;11993;48.748;9.166;2023-04-24T07:18:21;11.10;70.60
23633;DHT22;11993;48.748;9.166;2023-04-24T07:20:47;10.70;69.50
23633;DHT22;11993;48.748;9.166;2023-04-24T07:23:12;10.40;71.10
23633;DHT22;11993;48.748;9.166;2023-04-24T07:25:38;10.60;71.80
23633;DHT22;11993;48.748;9.166;2023-04-24T07:28:04;10.60;74.70
23633;DHT22;11993;48.748;9.166;2023-04-24T07:30:30;10.30;72.50
23633;DHT22;11993;48.748;9.166;2023-04-24T07:32:58;10.50;72.60
23633;DHT22;11993;48.748;9.166;2023-04-24T07:35:24;10.60;74.60
23633;DHT22;11993;48.748;9.166;2023-04-24T07:37:53;10.90;74.80
23633;DHT22;11993;48.748;9.166;2023-04-24T07:40:20;10.80;71.80
23633;DHT22;11993;48.748;9.166;2023-04-24T07:42:45;10.90;70.80
23633;DHT22;11993;48.748;9.166;2023-04-24T07:45:13;11.20;68.10
23633;DHT22;11993;48.748;9.166;2023-04-24T07:47:40;11.70;66.60
23633;DHT22;11993;48.748;9.166;2023-04-24T07:50:08;11.60;63.50
23633;DHT22;11993;48.748;9.166;2023-04-24T07:52:34;12.00;65.00
23633;DHT22;11993;48.748;9.166;2023-04-24T07:55:00;11.80;64.70
23633;DHT22;11993;48.748;9.166;2023-04-24T07:57:27;11.20;63.10
23633;DHT22;11993;48.748;9.166;2023-04-24T07:59:53;10.90;64.10
23633;DHT22;11993;48.748;9.166;2023-04-24T08:02:18;11.10;63.70
23633;DHT22;11993;48.748;9.166;2023-04-24T08:04:44;11.00;63.20
23633;DHT22;11993;48.748;9.166;2023-04-24T08:07:09;10.90;63.20
23633;DHT22;11993;48.748;9.166;2023-04-24T08:09:35;10.90;64.20
23633;DHT22;11993;48.748;9.166;2023-04-24T08:12:00;11.10;63.30
23633;DHT22;11993;48.748;9.166;2023-04-24T08:14:27;11.10;61.60
23633;DHT22;11993;48.748;9.166;2023-04-24T08:16:56;10.90;60.90
23633;DHT22;11993;48.748;9.166;2023-04-24T08:19:21;10.80;61.70
23633;DHT22;11993;48.748;9.166;2023-04-24T08:21:47;10.60;61.50
23633;DHT22;11993;48.748;9.166;2023-04-24T08:24:12;10.80;62.40
23633;DHT22;11993;48.748;9.166;2023-04-24T08:26:38;11.00;60.70
23633;DHT22;11993;48.748;9.166;2023-04-24T08:29:04;10.80;60.70
23633;DHT22;11993;48.748;9.166;2023-04-24T08:31:30;11.10;59.90
23633;DHT22;11993;48.748;9.166;2023-04-24T08:33:56;11.10;59.70
23633;DHT22;11993;48.748;9.166;2023-04-24T08:36:22;11.60;58.30
23633;DHT22;11993;48.748;9.166;2023-04-24T08:38:52;12.00;57.40
23633;DHT22;11993;48.748;9.166;2023-04-24T08:41:18;12.00;56.30
23633;DHT22;11993;48.748;9.166;2023-04-24T08:43:46;11.80;56.40
23633;DHT22;11993;48.748;9.166;2023-04-24T08:46:12;11.90;57.70
23633;DHT22;11993;48.748;9.166;2023-04-24T08:48:40;11.90;55.60
23633;DHT22;11993;48.748;9.166;2023-04-24T08:51:10;12.30;55.90
23633;DHT22;11993;48.748;9.166;2023-04-24T08:53:36;12.40;57.60
23633;DHT22;11993;48.748;9.166;2023-04-24T08:56:03;12.20;57.10
23633;DHT22;11993;48.748;9.166;2023-04-24T08:58:29;12.10;56.30
23633;DHT22;11993;48.748;9.166;2023-04-24T09:00:56;12.40;55.90
23633;DHT22;11993;48.748;9.166;2023-04-24T09:03:23;12.60;56.10
23633;DHT22;11993;48.748;9.166;2023-04-24T09:05:49;12.60;55.50
23633;DHT22;11993;48.748;9.166;2023-04-24T09:08:18;12.40;57.20
23633;DHT22;11993;48.748;9.166;2023-04-24T09:10:44;12.10;57.50
23633;DHT22;11993;48.748;9.166;2023-04-24T09:13:10;12.00;59.60
23633;DHT22;11993;48.748;9.166;2023-04-24T09:15:37;12.20;58.90
23633;DHT22;11993;48.748;9.166;2023-04-24T09:18:02;12.10;58.50
23633;DHT22;11993;48.748;9.166;2023-04-24T09:20:28;12.00;58.60
23633;DHT22;11993;48.748;9.166;2023-04-24T09:22:54;11.60;58.50
23633;DHT22;11993;48.748;9.166;2023-04-24T09:25:21;11.90;59.00
23633;DHT22;11993;48.748;9.166;2023-04-24T09:27:47;11.70;58.10
23633;DHT22;11993;48.748;9.166;2023-04-24T09:30:13;11.90;59.10
23633;DHT22;11993;48.748;9.166;2023-04-24T09:32:39;11.90;57.30
23633;DHT22;11993;48.748;9.166;2023-04-24T09:35:11;12.80;57.90
23633;DHT22;11993;48.748;9.166;2023-04-24T09:37:39;13.20;56.80
23633;DHT22;11993;48.748;9.166;2023-04-24T09:40:19;12.30;54.50
23633;DHT22;11993;48.748;9.166;2023-04-24T09:42:55;12.90;57.00
23633;DHT22;11993;48.748;9.166;2023-04-24T09:45:22;13.60;57.70
23633;DHT22;11993;48.748;9.166;2023-04-24T09:47:52;13.80;56.00
23633;DHT22;11993;48.748;9.166;2023-04-24T09:50:21;14.10;53.40
23633;DHT22;11993;48.748;9.166;2023-04-24T09:52:56;13.40;52.60
23633;DHT22;11993;48.748;9.166;2023-04-24T09:55:22;12.20;51.80
23633;DHT22;11993;48.748;9.166;2023-04-24T09:57:53;12.20;53.40
23633;DHT22;11993;48.748;9.166;2023-04-24T10:00:30;11.80;53.20
23633;DHT22;11993;48.748;9.166;2023-04-24T10:03:00;11.90;53.50
23633;DHT22;11993;48.748;9.166;2023-04-24T10:05:28;11.60;52.90
23633;DHT22;11993;48.748;9.166;2023-04-24T10:08:02;11.70;53.70
23633;DHT22;11993;48.748;9.166;2023-04-24T10:10:29;11.60;54.90
23633;DHT22;11993;48.748;9.166;2023-04-24T10:12:55;11.90;54.70
23633;DHT22;11993;48.748;9.166;2023-04-24T10:15:21;12.00;52.50
23633;DHT22;11993;48.748;9.166;2023-04-24T10:17:49;12.90;51.70
23633;DHT22;11993;48.748;9.166;2023-04-24T10:20:22;13.50;47.70
23633;DHT22;11993;48.748;9.166;2023-04-24T10:22:50;13.70;48.60
23633;DHT22;11993;48.748;9.166;2023-04-24T10:25:20;13.70;47.70
23633;DHT22;11993;48.748;9.166;2023-04-24T10:27:48;14.00;46.80
23633;DHT22;11993;48.748;9.166;2023-04-24T10:30:15;14.30;45.90
23633;DHT22;11993;48.748;9.166;2023-04-24T10:32:40;14.10;46.70
23633;DHT22;11993;48.748;9.166;2023-04-24T10:35:07;14.80;48.10
23633;DHT22;11993;48.748;9.166;2023-04-24T10:38:01;14.00;45.40
23633;DHT22;11993;48.748;9.166;2023-04-24T10:40:37;13.60;48.00
23633;DHT22;11993;48.748;9.166;2023-04-24T10:43:04;12.60;48.80
23633;DHT22;11993;48.748;9.166;2023-04-24T10:45:36;12.90;50.10
23633;DHT22;11993;48.748;9.166;2023-04-24T10:48:09;12.90;50.40
23633;DHT22;11993;48.748;9.166;2023-04-24T10:50:52;12.60;50.30
23633;DHT22;11993;48.748;9.166;2023-04-24T10:53:23;12.20;50.80
23633;DHT22;11993;48.748;9.166;2023-04-24T10:58:35;12.20;52.60
23633;DHT22;11993;48.748;9.166;2023-04-24T11:01:01;12.10;53.10
23633;DHT22;11993;48.748;9.166;2023-04-24T11:03:34;11.90;53.50
23633;DHT22;11993;48.748;9.166;2023-04-24T11:06:07;11.80;53.80
23633;DHT22;11993;48.748;9.166;2023-04-24T11:08:39;11.70;53.70
23633;DHT22;11993;48.748;9.166;2023-04-24T11:11:16;11.30;54.50
23633;DHT22;11993;48.748;9.166;2023-04-24T11:16:38;10.80;55.80
23633;DHT22;11993;48.748;9.166;2023-04-24T11:19:17;11.10;55.70
23633;DHT22;11993;48.748;9.166;2023-04-24T11:21:49;11.10;56.00
23633;DHT22;11993;48.748;9.166;2023-04-24T11:27:13;11.10;56.90
23633;DHT22;11993;48.748;9.166;2023-04-24T11:35:01;13.40;51.80
23633;DHT22;11993;48.748;9.166;2023-04-24T11:37:37;14.30;50.40
23633;DHT22;11993;48.748;9.166;2023-04-24T11:40:04;14.60;47.80
23633;DHT22;11993;48.748;9.166;2023-04-24T11:42:35;14.40;47.80
23633;DHT22;11993;48.748;9.166;2023-04-24T11:45:01;13.60;49.40
23633;DHT22;11993;48.748;9.166;2023-04-24T11:47:31;12.80;50.80
23633;DHT22;11993;48.748;9.166;2023-04-24T11:49:59;12.30;52.40
23633;DHT22;11993;48.748;9.166;2023-04-24T11:52:25;12.00;54.20
23633;DHT22;11993;48.748;9.166;2023-04-24T11:54:51;12.00;53.90
23633;DHT22;11993;48.748;9.166;2023-04-24T11:57:19;11.60;54.80
23633;DHT22;11993;48.748;9.166;2023-04-24T11:59:45;11.70;54.20
23633;DHT22;11993;48.748;9.166;2023-04-24T12:02:23;11.90;54.40
23633;DHT22;11993;48.748;9.166;2023-04-24T12:04:49;12.20;53.60
23633;DHT22;11993;48.748;9.166;2023-04-24T12:07:15;12.70;51.70
23633;DHT22;11993;48.748;9.166;2023-04-24T12:09:42;13.30;50.10
23633;DHT22;11993;48.748;9.166;2023-04-24T12:12:08;13.10;51.00
23633;DHT22;11993;48.748;9.166;2023-04-24T12:14:47;12.40;52.10
23633;DHT22;11993;48.748;9.166;2023-04-24T12:17:13;12.40;52.60
23633;DHT22;11993;48.748;9.166;2023-04-24T12:19:47;12.00;55.10
23633;DHT22;11993;48.748;9.166;2023-04-24T12:22:13;11.60;55.00
23633;DHT22;11993;48.748;9.166;2023-04-24T12:25:01;11.70;55.50
23633;DHT22;11993;48.748;9.166;2023-04-24T12:27:31;11.60;56.20
23633;DHT22;11993;48.748;9.166;2023-04-24T12:29:59;11.50;56.00
23633;DHT22;11993;48.748;9.166;2023-04-24T12:32:25;11.80;55.80
23633;DHT22;11993;48.748;9.166;2023-04-24T12:34:51;12.20;55.40
23633;DHT22;11993;48.748;9.166;2023-04-24T12:37:17;12.20;52.90
23633;DHT22;11993;48.748;9.166;2023-04-24T12:42:29;12.00;52.50
23633;DHT22;11993;48.748;9.166;2023-04-24T12:45:00;12.40;51.90
23633;DHT22;11993;48.748;9.166;2023-04-24T12:47:27;12.10;53.00
23633;DHT22;11993;48.748;9.166;2023-04-24T12:49:53;12.10;53.80
23633;DHT22;11993;48.748;9.166;2023-04-24T12:52:19;12.60;53.40
23633;DHT22;11993;48.748;9.166;2023-04-24T12:54:47;12.20;53.80
23633;DHT22;11993;48.748;9.166;2023-04-24T12:57:13;12.00;54.90
23633;DHT22;11993;48.748;9.166;2023-04-24T12:59:39;11.60;56.40
23633;DHT22;11993;48.748;9.166;2023-04-24T13:02:05;11.00;57.80
23633;DHT22;11993;48.748;9.166;2023-04-24T13:04:31;11.00;58.80
23633;DHT22;11993;48.748;9.166;2023-04-24T13:06:57;10.90;59.20
23633;DHT22;11993;48.748;9.166;2023-04-24T13:09:23;10.90;60.20
23633;DHT22;11993;48.748;9.166;2023-04-24T13:11:49;10.80;61.30
23633;DHT22;11993;48.748;9.166;2023-04-24T13:14:15;10.70;63.10
23633;DHT22;11993;48.748;9.166;2023-04-24T13:16:40;10.90;63.10
23633;DHT22;11993;48.748;9.166;2023-04-24T13:19:06;11.10;63.20
23633;DHT22;11993;48.748;9.166;2023-04-24T13:21:31;10.60;64.20
23633;DHT22;11993;48.748;9.166;2023-04-24T13:23:57;10.70;64.40
23633;DHT22;11993;48.748;9.166;2023-04-24T13:26:23;11.00;63.40
23633;DHT22;11993;48.748;9.166;2023-04-24T13:28:48;11.40;62.90
23633;DHT22;11993;48.748;9.166;2023-04-24T13:31:14;12.00;60.20
23633;DHT22;11993;48.748;9.166;2023-04-24T13:33:39;12.20;60.60
23633;DHT22;11993;48.748;9.166;2023-04-24T13:36:05;12.80;59.80
23633;DHT22;11993;48.748;9.166;2023-04-24T13:38:31;12.60;59.50
23633;DHT22;11993;48.748;9.166;2023-04-24T13:40:57;12.10;59.20
23633;DHT22;11993;48.748;9.166;2023-04-24T13:43:22;11.70;60.20
23633;DHT22;11993;48.748;9.166;2023-04-24T13:45:48;11.60;60.40
23633;DHT22;11993;48.748;9.166;2023-04-24T13:48:14;11.60;60.20
23633;DHT22;11993;48.748;9.166;2023-04-24T13:50:43;11.40;61.40
23633;DHT22;11993;48.748;9.166;2023-04-24T13:53:09;11.20;62.70
23633;DHT22;11993;48.748;9.166;2023-04-24T13:55:35;10.90;64.50
23633;DHT22;11993;48.748;9.166;2023-04-24T13:58:01;10.90;67.50
23633;DHT22;11993;48.748;9.166;2023-04-24T14:00:27;10.90;68.80
23633;DHT22;11993;48.748;9.166;2023-04-24T14:02:53;10.70;70.70
23633;DHT22;11993;48.748;9.166;2023-04-24T14:05:19;11.60;70.60
23633;DHT22;11993;48.748;9.166;2023-04-24T14:07:46;12.30;66.00
23633;DHT22;11993;48.748;9.166;2023-04-24T14:10:11;12.70;65.30
23633;DHT22;11993;48.748;9.166;2023-04-24T14:12:37;13.10;63.50
23633;DHT22;11993;48.748;9.166;2023-04-24T14:15:04;13.10;61.10
23633;DHT22;11993;48.748;9.166;2023-04-24T14:17:30;12.80;61.20
23633;DHT22;11993;48.748;9.166;2023-04-24T14:19:56;12.10;64.30
23633;DHT22;11993;48.748;9.166;2023-04-24T14:22:22;11.50;65.30
23633;DHT22;11993;48.748;9.166;2023-04-24T14:24:48;11.40;66.60
23633;DHT22;11993;48.748;9.166;2023-04-24T14:27:13;11.20;67.60
23633;DHT22;11993;48.748;9.166;2023-04-24T14:29:39;10.60;68.80
23633;DHT22;11993;48.748;9.166;2023-04-24T14:32:04;10.20;69.40
23633;DHT22;11993;48.748;9.166;2023-04-24T14:34:30;10.30;71.80
23633;DHT22;11993;48.748;9.166;2023-04-24T14:36:56;10.60;72.00
23633;DHT22;11993;48.748;9.166;2023-04-24T14:39:21;11.20;70.10
23633;DHT22;11993;48.748;9.166;2023-04-24T14:41:47;11.90;68.90
23633;DHT22;11993;48.748;9.166;2023-04-24T14:44:12;12.30;67.80
23633;DHT22;11993;48.748;9.166;2023-04-24T14:46:38;12.60;65.70
23633;DHT22;11993;48.748;9.166;2023-04-24T14:49:03;12.30;66.20
23633;DHT22;11993;48.748;9.166;2023-04-24T14:51:29;12.10;64.80
23633;DHT22;11993;48.748;9.166;2023-04-24T14:53:56;11.70;66.80
23633;DHT22;11993;48.748;9.166;2023-04-24T14:56:22;11.70;66.30
23633;DHT22;11993;48.748;9.166;2023-04-24T14:58:48;11.90;65.90
23633;DHT22;11993;48.748;9.166;2023-04-24T15:01:14;12.00;65.30
23633;DHT22;11993;48.748;9.166;2023-04-24T15:03:39;12.20;65.40
23633;DHT22;11993;48.748;9.166;2023-04-24T15:06:05;12.50;64.00
23633;DHT22;11993;48.748;9.166;2023-04-24T15:08:30;12.20;62.20
23633;DHT22;11993;48.748;9.166;2023-04-24T15:10:56;11.60;63.20
23633;DHT22;11993;48.748;9.166;2023-04-24T15:13:22;11.60;63.50
23633;DHT22;11993;48.748;9.166;2023-04-24T15:15:47;11.70;62.60
23633;DHT22;11993;48.748;9.166;2023-04-24T15:18:13;11.50;63.70
23633;DHT22;11993;48.748;9.166;2023-04-24T15:20:38;11.40;64.40
23633;DHT22;11993;48.748;9.166;2023-04-24T15:23:05;11.30;65.00
23633;DHT22;11993;48.748;9.166;2023-04-24T15:25:31;11.40;64.10
23633;DHT22;11993;48.748;9.166;2023-04-24T15:27:57;11.70;64.30
23633;DHT22;11993;48.748;9.166;2023-04-24T15:30:24;11.50;62.60
23633;DHT22;11993;48.748;9.166;2023-04-24T15:32:49;11.20;61.40
23633;DHT22;11993;48.748;9.166;2023-04-24T15:35:15;11.10;63.60
23633;DHT22;11993;48.748;9.166;2023-04-24T15:37:41;11.20;62.50
23633;DHT22;11993;48.748;9.166;2023-04-24T15:40:08;11.10;64.30
23633;DHT22;11993;48.748;9.166;2023-04-24T15:42:33;11.10;64.90
23633;DHT22;11993;48.748;9.166;2023-04-24T15:44:59;11.10;67.10
23633;DHT22;11993;48.748;9.166;2023-04-24T15:47:25;10.80;71.30